createdAt,value
2019-02-25T10:52:08.744Z,63.93
2019-02-25T10:53:15.580Z,63.93
2019-02-25T10:54:23.150Z,64.11
2019-02-25T10:55:28.079Z,63.77
2019-02-25T10:56:35.158Z,63.44
2019-02-25T10:57:42.236Z,63.33
2019-02-25T10:58:49.019Z,62.94
2019-02-25T10:59:55.883Z,62.68
2019-02-25T11:01:03.539Z,62.69
2019-02-25T11:02:11.166Z,62.01
2019-02-25T11:03:17.857Z,61.66
2019-02-25T11:04:23.819Z,61.41
2019-02-25T11:05:30.695Z,60.98
2019-02-25T11:06:37.698Z,60.85
2019-02-25T11:07:44.148Z,60.44
2019-02-25T11:08:51.149Z,60.14
2019-02-25T11:09:58.098Z,59.85
2019-02-25T11:17:47.658Z,59.25
2019-02-25T11:18:55.042Z,58.53
2019-02-25T11:20:01.316Z,58.24
2019-02-25T11:21:08.418Z,57.92
2019-02-25T11:22:14.666Z,58.05
2019-02-25T11:23:21.635Z,58.03
2019-02-25T11:24:27.362Z,57.78
2019-02-25T11:25:34.112Z,56.88
2019-02-25T11:26:40.780Z,57.22
2019-02-25T11:27:47.500Z,56.79
2019-02-25T11:28:54.302Z,56.46
2019-02-25T11:30:01.041Z,56.40
2019-02-25T11:31:07.913Z,56.93
2019-02-25T11:32:14.820Z,56.33
2019-02-25T11:33:22.774Z,55.79
2019-02-25T11:34:29.484Z,55.67
2019-02-25T11:35:36.599Z,55.74
2019-02-25T11:36:42.337Z,55.11
2019-02-25T11:37:49.737Z,55.12
2019-02-25T11:38:58.019Z,54.91
2019-02-25T11:40:04.422Z,54.48
2019-02-25T11:41:11.262Z,53.92
2019-02-25T11:42:20.261Z,53.67
2019-02-25T11:43:24.209Z,53.40
2019-02-25T11:44:31.377Z,53.22
2019-02-25T11:45:38.082Z,53.40
2019-02-25T11:46:44.940Z,52.89
2019-02-25T11:47:53.140Z,52.46
2019-02-25T11:48:58.982Z,52.13
2019-02-25T11:50:06.000Z,52.11
2019-02-25T11:51:12.907Z,51.54
2019-02-25T11:52:19.867Z,51.27
2019-02-25T11:53:26.747Z,51.79
2019-02-25T11:54:33.441Z,52.03
2019-02-25T11:55:40.384Z,51.89
2019-02-25T11:56:47.140Z,51.47
2019-02-25T11:57:53.884Z,51.24
2019-02-25T11:59:00.717Z,50.93
2019-02-25T12:00:07.540Z,50.61
2019-02-25T12:01:14.662Z,50.48
2019-02-25T12:02:25.641Z,50.38
2019-02-25T12:03:28.332Z,50.53
2019-02-25T12:04:35.122Z,50.29
2019-02-25T12:05:41.862Z,50.01
2019-02-25T12:06:49.462Z,50.24
2019-02-25T12:07:55.810Z,49.95
2019-02-25T12:09:02.598Z,49.49
2019-02-25T12:10:09.764Z,48.85
2019-02-25T12:11:16.826Z,48.69
2019-02-25T12:12:23.580Z,48.59
2019-02-25T12:13:30.324Z,48.35
2019-02-25T12:14:37.131Z,48.20
2019-02-25T12:15:43.801Z,47.96
2019-02-25T12:16:50.624Z,47.67
2019-02-25T12:17:57.377Z,47.84
2019-02-25T12:19:04.253Z,47.35
2019-02-25T12:20:11.000Z,47.23
2019-02-25T12:21:17.903Z,47.03
2019-02-25T12:22:24.725Z,46.87
2019-02-25T12:23:31.527Z,46.36
2019-02-25T12:24:38.344Z,46.22
2019-02-25T12:25:45.128Z,46.07
2019-02-25T12:26:52.144Z,45.76
2019-02-25T12:27:58.832Z,45.59
2019-02-25T12:29:10.839Z,45.60
2019-02-25T12:30:12.757Z,45.43
2019-02-25T12:31:19.431Z,44.99
2019-02-25T12:32:26.293Z,44.73
2019-02-25T12:33:33.028Z,44.37
2019-02-25T12:34:39.856Z,44.39
2019-02-25T12:35:46.681Z,44.32
2019-02-25T12:36:53.450Z,43.92
2019-02-25T12:38:00.312Z,44.07
2019-02-25T12:39:07.292Z,44.10
2019-02-25T12:40:14.432Z,43.87
2019-02-25T12:41:21.270Z,43.65
2019-02-25T12:42:28.095Z,43.37
2019-02-25T12:43:35.058Z,43.70
2019-02-25T12:44:41.934Z,43.56
2019-02-25T12:45:48.787Z,43.10
2019-02-25T12:46:55.575Z,43.05
2019-02-25T12:48:02.433Z,42.59
2019-02-25T12:49:09.239Z,42.46
2019-02-25T12:50:16.160Z,42.24
2019-02-25T12:51:23.016Z,41.93
2019-02-25T12:52:29.853Z,41.65
2019-02-25T12:53:37.839Z,41.88
2019-02-25T12:54:43.724Z,41.51
2019-02-25T12:55:51.059Z,41.48
2019-02-25T12:56:57.456Z,41.39
2019-02-25T12:58:04.328Z,41.00
2019-02-25T12:59:11.025Z,41.06
2019-02-25T13:00:17.868Z,40.79
2019-02-25T13:01:24.837Z,40.62
2019-02-25T13:02:31.649Z,40.28
2019-02-25T13:03:38.515Z,40.20
2019-02-25T13:04:45.317Z,40.00
2019-02-25T13:05:52.080Z,39.91
2019-02-25T13:06:58.857Z,39.58
2019-02-25T13:08:05.724Z,39.83
2019-02-25T13:09:12.684Z,39.81
2019-02-25T13:10:19.746Z,39.47
2019-02-25T13:11:26.532Z,39.47
2019-02-25T13:12:33.379Z,39.80
2019-02-25T13:13:40.188Z,39.66
2019-02-25T13:14:47.035Z,39.54
2019-02-25T13:15:53.870Z,39.21
2019-02-25T13:17:00.624Z,39.15
2019-02-25T13:18:07.400Z,39.71
2019-02-25T13:19:14.735Z,39.68
2019-02-25T13:20:21.560Z,39.38
2019-02-25T13:21:28.441Z,39.02
2019-02-25T13:22:35.204Z,38.87
2019-02-25T13:23:42.174Z,38.78
2019-02-25T13:24:49.032Z,38.50
2019-02-25T13:25:56.041Z,38.25
2019-02-25T13:27:03.789Z,38.02
2019-02-25T13:28:09.617Z,38.02
2019-02-25T13:29:16.612Z,38.10
2019-02-25T13:30:23.440Z,37.83
2019-02-25T13:31:30.313Z,37.73
2019-02-25T13:32:37.036Z,37.53
2019-02-25T13:33:43.942Z,37.42
2019-02-25T13:34:50.720Z,37.44
2019-02-25T13:35:57.636Z,37.15
2019-02-25T13:37:04.700Z,36.88
2019-02-25T13:38:11.479Z,37.00
2019-02-25T13:39:18.275Z,37.36
2019-02-25T13:40:25.634Z,37.06
2019-02-25T13:41:32.107Z,37.01
2019-02-25T13:42:39.175Z,37.17
2019-02-25T13:43:46.047Z,36.83
2019-02-25T13:44:52.930Z,36.82
2019-02-25T13:45:59.845Z,36.77
2019-02-25T13:47:06.610Z,36.84
2019-02-25T13:48:13.456Z,36.74
2019-02-25T13:49:20.216Z,36.96
2019-02-25T13:50:26.881Z,36.76
2019-02-25T13:51:33.744Z,36.68
2019-02-25T13:52:48.012Z,36.82
2019-02-25T13:53:47.400Z,36.71
2019-02-25T13:54:54.248Z,36.80
2019-02-25T13:56:01.088Z,36.71
2019-02-25T13:57:07.909Z,36.77
2019-02-25T13:58:14.740Z,36.98
2019-02-25T13:59:21.519Z,37.13
2019-02-25T14:00:28.403Z,36.83
2019-02-25T14:01:35.272Z,36.86
2019-02-25T14:02:42.180Z,36.76
2019-02-25T14:03:48.802Z,36.73
2019-02-25T14:04:55.937Z,36.83
2019-02-25T14:06:02.720Z,36.82
2019-02-25T14:07:09.739Z,36.98
2019-02-25T14:08:16.180Z,36.67
2019-02-25T14:09:22.901Z,36.79
2019-02-25T14:10:29.672Z,36.76
2019-02-25T14:11:36.490Z,36.63
2019-02-25T14:12:43.224Z,36.79
2019-02-25T14:13:49.999Z,36.91
2019-02-25T14:14:56.835Z,36.92
2019-02-25T14:16:03.810Z,36.92
2019-02-25T14:17:10.805Z,36.86
2019-02-25T14:18:17.652Z,36.79
2019-02-25T14:19:24.452Z,36.78
2019-02-25T14:20:31.288Z,36.78
2019-02-25T14:21:38.277Z,36.58
2019-02-25T14:22:45.141Z,36.55
2019-02-25T14:23:52.002Z,36.59
2019-02-25T14:24:58.855Z,36.60
2019-02-25T14:26:05.720Z,36.46
2019-02-25T14:27:12.619Z,36.45
2019-02-25T14:28:19.475Z,36.30
2019-02-25T14:29:26.571Z,36.33
2019-02-25T14:30:33.662Z,36.20
2019-02-25T14:31:40.122Z,36.36
2019-02-25T14:32:47.153Z,36.14
2019-02-25T14:33:54.071Z,36.19
2019-02-25T14:35:00.969Z,36.27
2019-02-25T14:36:10.622Z,36.26
2019-02-25T14:37:14.845Z,36.31
2019-02-25T14:38:23.234Z,36.45
2019-02-25T14:39:30.203Z,36.49
2019-02-25T14:40:39.350Z,36.47
2019-02-25T14:41:42.088Z,36.46
2019-02-25T14:42:51.029Z,36.30
2019-02-25T14:43:56.690Z,36.28
2019-02-25T14:45:04.603Z,36.28
2019-02-25T14:46:11.935Z,36.08
2019-02-25T14:47:20.458Z,36.07
2019-02-25T14:48:25.026Z,36.09
2019-02-25T14:49:32.451Z,36.16
2019-02-25T14:50:37.323Z,36.17
2019-02-25T14:51:44.338Z,36.22
2019-02-25T14:52:51.080Z,36.22
2019-02-25T14:53:57.935Z,36.28
2019-02-25T14:55:06.578Z,36.28
2019-02-25T14:56:11.756Z,36.37
2019-02-25T14:57:20.354Z,36.22
2019-02-25T14:58:25.507Z,36.24
2019-02-25T14:59:32.464Z,36.40
2019-02-25T15:00:39.248Z,36.39
2019-02-25T15:01:46.141Z,36.18
2019-02-25T15:02:53.024Z,36.17
2019-02-25T15:04:01.751Z,36.28
2019-02-25T15:05:06.809Z,36.28
2019-02-25T15:06:13.783Z,36.34
2019-02-25T15:07:20.550Z,36.32
2019-02-25T15:08:28.480Z,36.32
2019-02-25T15:09:34.855Z,36.44
2019-02-25T15:10:42.841Z,36.52
2019-02-25T15:11:48.024Z,36.41
2019-02-25T15:12:58.723Z,36.50
2019-02-25T15:14:01.862Z,36.52
2019-02-25T15:15:09.688Z,36.43
2019-02-25T15:16:15.577Z,36.53
2019-02-25T15:17:22.448Z,36.41
2019-02-25T15:18:31.355Z,36.65
2019-02-25T15:19:36.953Z,36.63
2019-02-25T15:20:43.258Z,36.57
2019-02-25T15:21:52.037Z,36.75
2019-02-25T15:22:56.972Z,36.96
2019-02-25T15:24:04.677Z,36.86
2019-02-25T15:25:10.663Z,36.78
2019-02-25T15:26:19.351Z,36.86
2019-02-25T15:27:24.404Z,36.87
2019-02-25T15:28:31.284Z,37.08
2019-02-25T15:29:39.782Z,37.32
2019-02-25T15:30:45.132Z,37.31
2019-02-25T15:31:52.567Z,37.49
2019-02-25T15:33:00.465Z,37.68
2019-02-25T15:34:05.795Z,37.66
2019-02-25T15:35:12.536Z,37.87
2019-02-25T15:36:20.499Z,37.80
2019-02-25T15:37:26.391Z,38.14
2019-02-25T15:38:34.865Z,38.41
2019-02-25T15:39:42.472Z,38.49
2019-02-25T15:40:47.077Z,38.41
2019-02-25T15:41:55.087Z,38.26
2019-02-25T15:43:00.909Z,38.21
2019-02-25T15:44:08.984Z,38.17
2019-02-25T15:45:14.879Z,38.07
2019-02-25T15:46:23.819Z,38.21
2019-02-25T15:47:30.115Z,38.27
2019-02-25T15:48:36.943Z,38.12
2019-02-25T15:49:42.365Z,38.25
2019-02-25T15:50:50.708Z,38.37
2019-02-25T15:51:56.272Z,38.58
2019-02-25T15:53:04.965Z,38.79
2019-02-25T15:54:10.238Z,38.92
2019-02-25T15:55:19.009Z,39.13
2019-02-25T15:56:23.845Z,39.24
2019-02-25T15:57:32.794Z,39.25
2019-02-25T15:58:37.903Z,39.55
2019-02-25T15:59:44.843Z,39.79
2019-02-25T16:00:51.729Z,39.81
2019-02-25T16:01:58.472Z,39.71
2019-02-25T16:03:06.162Z,39.45
2019-02-25T16:04:13.451Z,39.45
2019-02-25T16:05:19.160Z,39.56
2019-02-25T16:06:28.789Z,39.64
2019-02-25T16:07:33.803Z,39.66
2019-02-25T16:08:39.693Z,39.74
2019-02-25T16:09:46.547Z,39.62
2019-02-25T16:10:55.577Z,39.59
2019-02-25T16:12:00.995Z,39.51
2019-02-25T16:13:11.168Z,39.61
2019-02-25T16:14:14.254Z,39.66
2019-02-25T16:15:21.094Z,39.89
2019-02-25T16:16:27.959Z,40.27
2019-02-25T16:17:37.277Z,40.43
2019-02-25T16:18:42.575Z,40.54
2019-02-25T16:19:50.791Z,40.63
2019-02-25T16:20:57.496Z,40.85
2019-02-25T16:22:02.753Z,40.72
2019-02-25T16:23:09.672Z,40.85
2019-02-25T16:24:17.006Z,41.02
2019-02-25T16:25:24.805Z,41.19
2019-02-25T16:26:31.910Z,41.41
2019-02-25T16:27:37.017Z,41.52
2019-02-25T16:28:44.408Z,41.38
2019-02-25T16:29:51.791Z,41.50
2019-02-25T16:30:58.048Z,41.74
2019-02-25T16:32:04.938Z,41.95
2019-02-25T16:33:14.355Z,41.86
2019-02-25T16:34:20.549Z,42.02
2019-02-25T16:35:25.690Z,42.17
2019-02-25T16:36:32.900Z,42.34
2019-02-25T16:37:39.470Z,42.27
2019-02-25T16:38:46.583Z,42.39
2019-02-25T16:39:55.549Z,42.43
2019-02-25T16:41:00.977Z,42.57
2019-02-25T16:42:06.973Z,42.58
2019-02-25T16:43:13.863Z,42.59
2019-02-25T16:44:20.900Z,42.69
2019-02-25T16:45:32.378Z,42.72
2019-02-25T16:46:38.737Z,42.72
2019-02-25T16:47:41.673Z,42.75
2019-02-25T16:48:50.619Z,42.87
2019-02-25T16:49:56.393Z,42.96
2019-02-25T16:51:03.245Z,43.02
2019-02-25T16:52:09.456Z,43.03
2019-02-25T16:53:18.309Z,43.17
2019-02-25T16:54:25.124Z,43.27
2019-02-25T16:55:30.377Z,43.29
2019-02-25T16:56:37.141Z,43.36
2019-02-25T16:57:45.604Z,43.42
2019-02-25T16:58:52.744Z,43.48
2019-02-25T16:59:59.716Z,43.58
2019-02-25T17:01:05.501Z,43.55
2019-02-25T17:02:14.089Z,43.69
2019-02-25T17:03:18.497Z,43.73
2019-02-25T17:04:27.196Z,43.77
2019-02-25T17:05:32.224Z,43.78
2019-02-25T17:06:39.002Z,43.96
2019-02-25T17:07:48.884Z,43.95
2019-02-25T17:08:53.536Z,44.04
2019-02-25T17:10:00.817Z,44.06
2019-02-25T17:11:06.408Z,44.17
2019-02-25T17:12:13.688Z,44.25
2019-02-25T17:13:20.541Z,44.21
2019-02-25T17:14:27.547Z,44.24
2019-02-25T17:15:34.505Z,44.35
2019-02-25T17:16:41.277Z,44.32
2019-02-25T17:17:48.116Z,44.37
2019-02-25T17:18:55.315Z,44.31
2019-02-25T17:20:02.290Z,44.35
2019-02-25T17:21:09.156Z,44.31
2019-02-25T17:22:16.026Z,44.35
2019-02-25T17:23:25.079Z,44.35
2019-02-25T17:24:30.502Z,44.39
2019-02-25T17:25:38.422Z,44.46
2019-02-25T17:26:43.421Z,44.54
2019-02-25T17:27:50.272Z,44.51
2019-02-25T17:28:57.134Z,44.56
2019-02-25T17:30:03.992Z,44.58
2019-02-25T17:31:11.540Z,44.59
2019-02-25T17:32:19.361Z,44.67
2019-02-25T17:33:26.205Z,44.68
2019-02-25T17:34:32.287Z,44.71
2019-02-25T17:35:38.647Z,44.89
2019-02-25T17:36:45.641Z,44.90
2019-02-25T17:37:53.417Z,44.94
2019-02-25T17:38:59.313Z,44.98
2019-02-25T17:40:06.839Z,44.95
2019-02-25T17:41:13.257Z,45.09
2019-02-25T17:42:20.760Z,45.23
2019-02-25T17:43:26.914Z,45.18
2019-02-25T17:44:34.883Z,45.33
2019-02-25T17:45:41.143Z,45.44
2019-02-25T17:46:47.816Z,45.40
2019-02-25T17:47:54.608Z,45.44
2019-02-25T17:49:01.501Z,45.46
2019-02-25T17:50:09.026Z,45.55
2019-02-25T17:51:16.217Z,45.54
2019-02-25T17:52:22.872Z,45.61
2019-02-25T17:53:30.442Z,45.68
2019-02-25T17:54:37.631Z,45.75
2019-02-25T17:55:42.556Z,45.77
2019-02-25T17:56:51.385Z,45.77
2019-02-25T17:57:56.869Z,45.90
2019-02-25T17:59:05.194Z,45.91
2019-02-25T18:00:11.172Z,46.01
2019-02-25T18:01:19.104Z,45.93
2019-02-25T18:02:24.371Z,45.95
2019-02-25T18:03:31.169Z,45.99
2019-02-25T18:04:38.002Z,45.88
2019-02-25T18:05:44.889Z,46.04
2019-02-25T18:06:51.692Z,46.11
2019-02-25T18:07:58.629Z,46.14
2019-02-25T18:09:05.664Z,46.21
2019-02-25T18:10:12.652Z,46.29
2019-02-25T18:11:20.287Z,46.42
2019-02-25T18:12:29.461Z,46.53
2019-02-25T18:13:35.145Z,46.53
2019-02-25T18:14:41.497Z,46.50
2019-02-25T18:15:47.750Z,46.51
2019-02-25T18:16:53.952Z,46.46
2019-02-25T18:18:00.828Z,46.50
2019-02-25T18:19:09.247Z,46.55
2019-02-25T18:20:14.693Z,46.52
2019-02-25T18:21:21.539Z,46.51
2019-02-25T18:22:30.318Z,46.57
2019-02-25T18:23:36.317Z,46.60
2019-02-25T18:24:43.841Z,46.64
2019-02-25T18:25:48.879Z,46.69
2019-02-25T18:26:55.769Z,46.75
2019-02-25T18:28:06.404Z,46.75
2019-02-25T18:29:09.513Z,46.78
2019-02-25T18:30:16.485Z,46.93
2019-02-25T18:31:23.469Z,46.95
2019-02-25T18:32:31.066Z,46.98
2019-02-25T18:33:37.372Z,47.14
2019-02-25T18:34:44.329Z,47.11
2019-02-25T18:35:51.202Z,47.07
2019-02-25T18:36:58.084Z,47.16
2019-02-25T18:38:07.243Z,47.19
2019-02-25T18:39:12.317Z,47.19
2019-02-25T18:40:22.453Z,47.31
2019-02-25T18:41:27.422Z,47.38
2019-02-25T18:42:34.862Z,47.42
2019-02-25T18:43:39.906Z,47.47
2019-02-25T18:44:48.637Z,47.58
2019-02-25T18:45:53.731Z,47.61
2019-02-25T18:47:02.446Z,47.62
2019-02-25T18:48:07.459Z,47.71
2019-02-25T18:49:14.331Z,47.72
2019-02-25T18:50:21.799Z,47.76
2019-02-25T18:51:28.725Z,47.81
2019-02-25T18:52:36.761Z,47.78
2019-02-25T18:53:42.016Z,47.86
2019-02-25T18:54:48.869Z,47.87
2019-02-25T18:55:57.642Z,47.85
2019-02-25T18:57:03.370Z,47.90
2019-02-25T18:58:11.528Z,47.90
2019-02-25T18:59:18.027Z,48.00
2019-02-25T19:00:24.249Z,48.08
2019-02-25T19:01:30.162Z,48.11
2019-02-25T19:02:38.133Z,48.29
2019-02-25T19:03:44.185Z,48.33
2019-02-25T19:04:51.207Z,48.32
2019-02-25T19:05:59.331Z,48.32
2019-02-25T19:07:05.855Z,48.38
2019-02-25T19:08:14.513Z,48.24
2019-02-25T19:09:21.186Z,48.24
2019-02-25T19:10:26.868Z,48.30
2019-02-25T19:11:32.824Z,48.32
2019-02-25T19:12:39.661Z,48.36
2019-02-25T19:13:48.234Z,48.35
2019-02-25T19:14:55.779Z,48.36
2019-02-25T19:16:01.523Z,48.34
2019-02-25T19:17:08.536Z,48.32
2019-02-25T19:18:17.156Z,48.36
2019-02-25T19:19:21.287Z,48.40
2019-02-25T19:20:28.259Z,48.36
2019-02-25T19:21:35.148Z,48.44
2019-02-25T19:22:43.762Z,48.42
2019-02-25T19:23:48.865Z,48.57
2019-02-25T19:24:55.769Z,48.56
2019-02-25T19:26:02.622Z,48.61
2019-02-25T19:27:10.888Z,48.71
2019-02-25T19:28:18.718Z,48.66
2019-02-25T19:29:24.397Z,48.69
2019-02-25T19:30:32.106Z,48.68
2019-02-25T19:31:37.389Z,48.67
2019-02-25T19:32:44.328Z,48.72
2019-02-25T19:33:51.170Z,48.79
2019-02-25T19:34:58.683Z,48.77
2019-02-25T19:36:05.650Z,48.80
2019-02-25T19:37:12.635Z,48.85
2019-02-25T19:38:18.853Z,48.85
2019-02-25T19:39:25.636Z,48.86
2019-02-25T19:40:32.775Z,48.85
2019-02-25T19:41:39.665Z,48.87
2019-02-25T19:42:49.309Z,48.80
2019-02-25T19:43:59.221Z,48.86
2019-02-25T19:45:02.688Z,48.95
2019-02-25T19:46:08.716Z,49.02
2019-02-25T19:47:16.196Z,49.09
2019-02-25T19:48:22.644Z,49.16
2019-02-25T19:49:27.632Z,49.12
2019-02-25T19:50:36.500Z,49.21
2019-02-25T19:51:43.275Z,49.20
2019-02-25T19:52:48.230Z,49.18
2019-02-25T19:53:55.031Z,49.22
2019-02-25T19:55:05.641Z,49.31
2019-02-25T19:56:08.838Z,49.37
2019-02-25T19:57:16.601Z,49.39
2019-02-25T19:58:24.193Z,49.41
2019-02-25T19:59:31.043Z,49.45
2019-02-25T20:00:36.200Z,49.44
2019-02-25T20:01:43.087Z,49.39
2019-02-25T20:02:49.795Z,49.46
2019-02-25T20:03:57.037Z,49.47
2019-02-25T20:05:04.700Z,49.49
2019-02-25T20:06:13.842Z,49.56
2019-02-25T20:07:18.539Z,49.62
2019-02-25T20:08:24.525Z,49.66
2019-02-25T20:09:31.357Z,49.76
2019-02-25T20:10:38.105Z,49.79
2019-02-25T20:11:45.288Z,49.84
2019-02-25T20:12:53.246Z,49.92
2019-02-25T20:14:00.966Z,49.97
2019-02-25T20:15:09.032Z,50.03
2019-02-25T20:16:15.714Z,49.97
2019-02-25T20:17:21.540Z,50.07
2019-02-25T20:18:26.497Z,50.11
2019-02-25T20:19:33.293Z,50.13
2019-02-25T20:20:41.700Z,50.14
2019-02-25T20:21:48.216Z,50.18
2019-02-25T20:22:54.025Z,50.17
2019-02-25T20:24:00.841Z,50.15
2019-02-25T20:25:07.801Z,50.19
2019-02-25T20:26:15.604Z,50.28
2019-02-25T20:27:22.134Z,50.26
2019-02-25T20:28:28.355Z,50.33
2019-02-25T20:29:36.033Z,50.35
2019-02-25T20:30:43.026Z,50.38
2019-02-25T20:31:50.173Z,50.37
2019-02-25T20:32:55.568Z,50.38
2019-02-25T20:34:02.569Z,50.47
2019-02-25T20:35:09.668Z,50.49
2019-02-25T20:36:19.275Z,50.61
2019-02-25T20:37:24.989Z,50.69
2019-02-25T20:38:32.623Z,50.71
2019-02-25T20:39:38.655Z,50.75
2019-02-25T20:40:47.059Z,50.75
2019-02-25T20:41:52.346Z,50.78
2019-02-25T20:42:58.733Z,50.84
2019-02-25T20:44:05.124Z,50.79
2019-02-25T20:45:11.268Z,50.82
2019-02-25T20:46:21.957Z,50.82
2019-02-25T20:47:25.169Z,50.85
2019-02-25T20:48:32.034Z,50.85
2019-02-25T20:49:38.824Z,50.86
2019-02-25T20:50:45.676Z,50.94
2019-02-25T20:51:54.348Z,50.91
2019-02-25T20:53:04.922Z,50.92
2019-02-25T20:54:06.174Z,51.00
2019-02-25T20:55:13.414Z,50.98
2019-02-25T20:56:19.907Z,50.97
2019-02-25T20:57:26.776Z,50.96
2019-02-25T20:58:36.112Z,50.95
2019-02-25T20:59:40.348Z,51.08
2019-02-25T21:00:48.791Z,51.11
2019-02-25T21:01:54.040Z,51.15
2019-02-25T21:03:02.770Z,51.17
2019-02-25T21:04:08.766Z,51.20
2019-02-25T21:05:16.744Z,51.25
2019-02-25T21:06:21.430Z,51.23
2019-02-25T21:07:29.695Z,51.24
2019-02-25T21:08:37.040Z,51.29
2019-02-25T21:09:42.272Z,51.38
2019-02-25T21:10:48.879Z,51.45
2019-02-25T21:11:55.772Z,51.45
2019-02-25T21:13:02.629Z,51.58
2019-02-25T21:14:09.364Z,51.62
2019-02-25T21:15:16.272Z,51.63
2019-02-25T21:16:24.177Z,51.71
2019-02-25T21:17:30.872Z,51.71
2019-02-25T21:18:36.589Z,51.70
2019-02-25T21:19:44.291Z,51.84
2019-02-25T21:20:51.528Z,51.87
2019-02-25T21:21:59.780Z,51.90
2019-02-25T21:23:05.951Z,51.89
2019-02-25T21:24:11.887Z,51.96
2019-02-25T21:25:22.067Z,52.05
2019-02-25T21:26:27.380Z,52.06
2019-02-25T21:27:32.507Z,52.09
2019-02-25T21:28:40.483Z,52.22
2019-02-25T21:29:45.687Z,52.33
2019-02-25T21:30:52.887Z,52.48
2019-02-25T21:31:59.379Z,52.54
2019-02-25T21:33:06.229Z,52.69
2019-02-25T21:34:17.747Z,52.69
2019-02-25T21:35:23.434Z,52.76
2019-02-25T21:36:27.706Z,52.85
2019-02-25T21:37:34.204Z,52.93
2019-02-25T21:38:40.974Z,52.92
2019-02-25T21:39:47.744Z,52.98
2019-02-25T21:40:54.957Z,53.07
2019-02-25T21:42:01.480Z,53.12
2019-02-25T21:43:09.737Z,53.19
2019-02-25T21:44:18.880Z,53.20
2019-02-25T21:45:22.415Z,53.24
2019-02-25T21:46:29.561Z,53.29
2019-02-25T21:47:35.707Z,53.33
2019-02-25T21:48:42.484Z,53.33
2019-02-25T21:49:49.190Z,53.41
2019-02-25T21:50:58.128Z,53.37
2019-02-25T21:52:06.083Z,53.43
2019-02-25T21:53:11.640Z,53.58
2019-02-25T21:54:16.573Z,53.64
2019-02-25T21:55:25.532Z,53.64
2019-02-25T21:56:30.389Z,53.63
2019-02-25T21:57:37.636Z,53.69
2019-02-25T21:58:45.088Z,53.67
2019-02-25T21:59:50.957Z,53.73
2019-02-25T22:00:57.851Z,53.80
2019-02-25T22:02:04.686Z,53.79
2019-02-25T22:03:13.219Z,53.80
2019-02-25T22:04:20.226Z,53.83
2019-02-25T22:05:25.279Z,53.95
2019-02-25T22:06:33.258Z,53.94
2019-02-25T22:07:39.044Z,53.97
2019-02-25T22:08:45.816Z,54.00
2019-02-25T22:09:52.643Z,54.03
2019-02-25T22:11:11.770Z,54.08
2019-02-25T22:12:06.373Z,54.07
2019-02-25T22:13:14.339Z,54.11
2019-02-25T22:14:21.711Z,54.20
2019-02-25T22:15:26.883Z,54.25
2019-02-25T22:16:33.672Z,54.24
2019-02-25T22:17:43.165Z,54.29
2019-02-25T22:18:48.358Z,54.37
2019-02-25T22:19:54.431Z,54.44
2019-02-25T22:21:05.115Z,54.51
2019-02-25T22:22:08.211Z,54.63
2019-02-25T22:23:14.988Z,54.69
2019-02-25T22:24:24.817Z,54.79
2019-02-25T22:25:28.704Z,54.74
2019-02-25T22:26:35.987Z,54.81
2019-02-25T22:27:43.860Z,54.90
2019-02-25T22:28:50.879Z,54.92
2019-02-25T22:29:57.857Z,54.98
2019-02-25T22:31:03.035Z,55.06
2019-02-25T22:32:10.952Z,55.09
2019-02-25T22:33:26.631Z,55.07
2019-02-25T22:34:25.237Z,55.09
2019-02-25T22:35:33.134Z,55.14
2019-02-25T22:36:39.475Z,55.16
2019-02-25T22:37:46.855Z,55.17
2019-02-25T22:38:51.004Z,55.16
2019-02-25T22:39:57.773Z,55.28
2019-02-25T22:41:04.628Z,55.33
2019-02-25T22:42:12.210Z,55.29
2019-02-25T22:43:19.198Z,55.32
2019-02-25T22:44:26.855Z,55.41
2019-02-25T22:45:33.164Z,55.51
2019-02-25T22:46:39.712Z,55.56
2019-02-25T22:47:45.699Z,55.54
2019-02-25T22:48:52.403Z,55.57
2019-02-25T22:49:59.231Z,55.64
2019-02-25T22:51:07.021Z,55.77
2019-02-25T22:52:12.907Z,55.79
2019-02-25T22:53:19.632Z,55.83
2019-02-25T22:54:26.434Z,55.84
2019-02-25T22:55:36.813Z,55.89
2019-02-25T22:56:40.298Z,55.86
2019-02-25T22:57:50.603Z,55.91
2019-02-25T22:58:54.406Z,55.94
2019-02-25T23:00:00.715Z,55.92
2019-02-25T23:01:07.853Z,55.91
2019-02-25T23:02:14.823Z,55.96
2019-02-25T23:03:23.223Z,55.99
2019-02-25T23:04:28.411Z,55.96
2019-02-25T23:05:35.113Z,55.95
2019-02-25T23:06:42.457Z,55.98
2019-02-25T23:07:50.197Z,56.00
2019-02-25T23:08:55.809Z,56.05
2019-02-25T23:10:02.579Z,56.11
2019-02-25T23:11:10.365Z,56.08
2019-02-25T23:12:19.554Z,56.06
2019-02-25T23:13:24.821Z,56.14
2019-02-25T23:14:29.853Z,56.14
2019-02-25T23:15:36.728Z,56.10
2019-02-25T23:16:45.325Z,56.14
2019-02-25T23:17:50.542Z,56.22
2019-02-25T23:18:57.329Z,56.30
2019-02-25T23:20:05.704Z,56.30
2019-02-25T23:21:10.812Z,56.37
2019-02-25T23:22:17.767Z,56.37
2019-02-25T23:23:26.427Z,56.37
2019-02-25T23:24:34.777Z,56.45
2019-02-25T23:25:38.328Z,56.49
2019-02-25T23:26:45.183Z,56.53
2019-02-25T23:27:53.568Z,56.58
2019-02-25T23:28:59.829Z,56.60
2019-02-25T23:30:08.421Z,56.64
2019-02-25T23:31:14.472Z,56.72
2019-02-25T23:32:19.136Z,56.77
2019-02-25T23:33:25.899Z,56.75
2019-02-25T23:34:32.608Z,56.76
2019-02-25T23:35:42.699Z,56.86
2019-02-25T23:36:47.042Z,56.91
2019-02-25T23:37:54.423Z,56.94
2019-02-25T23:39:01.628Z,56.99
2019-02-25T23:40:07.321Z,57.23
2019-02-25T23:41:14.599Z,57.24
2019-02-25T23:42:20.355Z,57.31
2019-02-25T23:43:27.384Z,57.27
2019-02-25T23:44:34.137Z,57.29
2019-02-25T23:45:42.036Z,57.35
2019-02-25T23:46:47.880Z,57.30
2019-02-25T23:47:57.593Z,57.36
2019-02-25T23:49:01.695Z,57.36
2019-02-25T23:50:10.531Z,57.45
2019-02-25T23:51:17.294Z,57.46
2019-02-25T23:52:22.300Z,57.46
2019-02-25T23:53:31.069Z,57.45
2019-02-25T23:54:35.847Z,57.41
2019-02-25T23:55:45.094Z,57.48
2019-02-25T23:56:50.362Z,57.51
2019-02-25T23:57:56.287Z,57.51
2019-02-25T23:59:03.110Z,57.55
